sensor_id;sensor_type;location;lat;lon;timestamp;pressure;altitude;pressure_sealevel;temperature;humidity
8075;BME280;4080;42.676;23.372;2023-01-28T00:00:31;94420.19;;;1.70;100.00
8075;BME280;4080;42.676;23.372;2023-01-28T00:02:58;94410.25;;;1.67;100.00
8075;BME280;4080;42.676;23.372;2023-01-28T00:05:25;94425.94;;;1.72;100.00
8075;BME280;4080;42.676;23.372;2023-01-28T00:07:52;94410.00;;;1.68;100.00
8075;BME280;4080;42.676;23.372;2023-01-28T00:10:18;94434.31;;;1.74;100.00
8075;BME280;4080;42.676;23.372;2023-01-28T00:12:46;94434.31;;;1.74;100.00
8075;BME280;4080;42.676;23.372;2023-01-28T00:15:15;94434.19;;;1.69;100.00
8075;BME280;4080;42.676;23.372;2023-01-28T00:17:42;94422.47;;;1.54;100.00
8075;BME280;4080;42.676;23.372;2023-01-28T00:20:09;94442.00;;;1.69;100.00
8075;BME280;4080;42.676;23.372;2023-01-28T00:22:36;94450.81;;;1.68;100.00
8075;BME280;4080;42.676;23.372;2023-01-28T00:25:03;94404.91;;;1.38;100.00
8075;BME280;4080;42.676;23.372;2023-01-28T00:27:30;94442.22;;;1.67;100.00
8075;BME280;4080;42.676;23.372;2023-01-28T00:29:58;94451.16;;;1.71;100.00
8075;BME280;4080;42.676;23.372;2023-01-28T00:32:25;94449.44;;;1.77;100.00
8075;BME280;4080;42.676;23.372;2023-01-28T00:34:51;94457.03;;;1.78;100.00
8075;BME280;4080;42.676;23.372;2023-01-28T00:37:18;94458.84;;;1.78;100.00
8075;BME280;4080;42.676;23.372;2023-01-28T00:39:45;94465.06;;;1.77;100.00
8075;BME280;4080;42.676;23.372;2023-01-28T00:42:11;94458.28;;;1.76;100.00
8075;BME280;4080;42.676;23.372;2023-01-28T00:44:38;94458.28;;;1.76;100.00
8075;BME280;4080;42.676;23.372;2023-01-28T00:47:06;94449.47;;;1.65;100.00
8075;BME280;4080;42.676;23.372;2023-01-28T00:49:33;94458.72;;;1.73;100.00
8075;BME280;4080;42.676;23.372;2023-01-28T00:52:00;94453.19;;;1.69;100.00
8075;BME280;4080;42.676;23.372;2023-01-28T00:54:26;94466.06;;;1.76;100.00
8075;BME280;4080;42.676;23.372;2023-01-28T00:56:53;94465.50;;;1.74;100.00
8075;BME280;4080;42.676;23.372;2023-01-28T00:59:20;94458.72;;;1.73;100.00
8075;BME280;4080;42.676;23.372;2023-01-28T01:01:46;94464.72;;;1.73;100.00
8075;BME280;4080;42.676;23.372;2023-01-28T01:04:14;94460.41;;;1.67;100.00
8075;BME280;4080;42.676;23.372;2023-01-28T01:06:51;94431.59;;;1.45;100.00
8075;BME280;4080;42.676;23.372;2023-01-28T01:09:17;94463.03;;;1.67;100.00
8075;BME280;4080;42.676;23.372;2023-01-28T01:11:44;94466.41;;;1.68;100.00
8075;BME280;4080;42.676;23.372;2023-01-28T01:14:11;94462.56;;;1.70;100.00
8075;BME280;4080;42.676;23.372;2023-01-28T01:16:37;94464.38;;;1.70;100.00
8075;BME280;4080;42.676;23.372;2023-01-28T01:19:04;94468.00;;;1.69;100.00
8075;BME280;4080;42.676;23.372;2023-01-28T01:21:33;94471.28;;;1.64;100.00
8075;BME280;4080;42.676;23.372;2023-01-28T01:23:59;94471.63;;;1.68;100.00
8075;BME280;4080;42.676;23.372;2023-01-28T01:26:26;94466.41;;;1.68;100.00
8075;BME280;4080;42.676;23.372;2023-01-28T01:28:53;94465.28;;;1.64;100.00
8075;BME280;4080;42.676;23.372;2023-01-28T01:31:21;94459.41;;;1.57;100.00
8075;BME280;4080;42.676;23.372;2023-01-28T01:33:50;94468.09;;;1.62;100.00
8075;BME280;4080;42.676;23.372;2023-01-28T01:36:17;94463.44;;;1.52;100.00
8075;BME280;4080;42.676;23.372;2023-01-28T01:38:47;94456.66;;;1.51;100.00
8075;BME280;4080;42.676;23.372;2023-01-28T01:41:23;94468.78;;;1.58;100.00
8075;BME280;4080;42.676;23.372;2023-01-28T01:43:51;94463.03;;;1.55;100.00
8075;BME280;4080;42.676;23.372;2023-01-28T01:46:21;94430.78;;;1.33;100.00
8075;BME280;4080;42.676;23.372;2023-01-28T01:48:50;94471.16;;;1.59;100.00
8075;BME280;4080;42.676;23.372;2023-01-28T01:51:21;94463.91;;;1.49;100.00
8075;BME280;4080;42.676;23.372;2023-01-28T01:53:53;94481.00;;;1.57;100.00
8075;BME280;4080;42.676;23.372;2023-01-28T01:56:24;94476.34;;;1.59;100.00
8075;BME280;4080;42.676;23.372;2023-01-28T01:58:54;94482.34;;;1.60;100.00
8075;BME280;4080;42.676;23.372;2023-01-28T02:01:24;94481.22;;;1.55;100.00
8075;BME280;4080;42.676;23.372;2023-01-28T02:03:55;94486.66;;;1.54;100.00
8075;BME280;4080;42.676;23.372;2023-01-28T02:06:25;94481.63;;;1.52;100.00
8075;BME280;4080;42.676;23.372;2023-01-28T02:08:55;94483.66;;;1.50;100.00
8075;BME280;4080;42.676;23.372;2023-01-28T02:11:24;94428.81;;;1.17;100.00
8075;BME280;4080;42.676;23.372;2023-01-28T02:13:53;94489.88;;;1.49;100.00
8075;BME280;4080;42.676;23.372;2023-01-28T02:16:23;94485.94;;;1.47;100.00
8075;BME280;4080;42.676;23.372;2023-01-28T02:18:51;94485.94;;;1.47;100.00
8075;BME280;4080;42.676;23.372;2023-01-28T02:21:40;94491.13;;;1.47;100.00
8075;BME280;4080;42.676;23.372;2023-01-28T02:24:23;94484.00;;;1.42;100.00
8075;BME280;4080;42.676;23.372;2023-01-28T02:27:12;94491.91;;;1.47;100.00
8075;BME280;4080;42.676;23.372;2023-01-28T02:29:45;94491.91;;;1.47;100.00
8075;BME280;4080;42.676;23.372;2023-01-28T02:32:19;94491.47;;;1.50;100.00
8075;BME280;4080;42.676;23.372;2023-01-28T02:34:51;94495.09;;;1.49;100.00
8075;BME280;4080;42.676;23.372;2023-01-28T02:37:22;94495.09;;;1.49;100.00
8075;BME280;4080;42.676;23.372;2023-01-28T02:39:54;94479.25;;;1.39;100.00
8075;BME280;4080;42.676;23.372;2023-01-28T02:42:26;94494.28;;;1.49;100.00
8075;BME280;4080;42.676;23.372;2023-01-28T02:44:56;94491.47;;;1.50;100.00
8075;BME280;4080;42.676;23.372;2023-01-28T02:47:22;94494.63;;;1.52;100.00
8075;BME280;4080;42.676;23.372;2023-01-28T02:50:08;94493.06;;;1.51;100.00
8075;BME280;4080;42.676;23.372;2023-01-28T02:52:45;94492.63;;;1.54;100.00
8075;BME280;4080;42.676;23.372;2023-01-28T02:55:38;94498.41;;;1.57;100.00
8075;BME280;4080;42.676;23.372;2023-01-28T02:58:15;94495.22;;;1.54;100.00
8075;BME280;4080;42.676;23.372;2023-01-28T03:00:49;94482.75;;;1.45;100.00
8075;BME280;4080;42.676;23.372;2023-01-28T03:03:24;94409.81;;;0.93;100.00
8075;BME280;4080;42.676;23.372;2023-01-28T03:05:55;94487.16;;;1.44;100.00
8075;BME280;4080;42.676;23.372;2023-01-28T03:08:34;94497.13;;;1.47;100.00
8075;BME280;4080;42.676;23.372;2023-01-28T03:11:20;94498.13;;;1.46;100.00
8075;BME280;4080;42.676;23.372;2023-01-28T03:14:05;94500.72;;;1.46;100.00
8075;BME280;4080;42.676;23.372;2023-01-28T03:16:52;94508.75;;;1.45;100.00
8075;BME280;4080;42.676;23.372;2023-01-28T03:19:38;94502.75;;;1.44;100.00
8075;BME280;4080;42.676;23.372;2023-01-28T03:22:23;94505.59;;;1.43;100.00
8075;BME280;4080;42.676;23.372;2023-01-28T03:25:10;94505.69;;;1.36;100.00
8075;BME280;4080;42.676;23.372;2023-01-28T03:28:00;94509.75;;;1.32;100.00
8075;BME280;4080;42.676;23.372;2023-01-28T03:30:49;94465.63;;;1.02;100.00
8075;BME280;4080;42.676;23.372;2023-01-28T03:33:37;94505.00;;;1.29;100.00
8075;BME280;4080;42.676;23.372;2023-01-28T03:36:22;94456.94;;;0.78;100.00
8075;BME280;4080;42.676;23.372;2023-01-28T03:39:26;94510.50;;;1.21;100.00
8075;BME280;4080;42.676;23.372;2023-01-28T03:41:58;94513.31;;;1.19;100.00
8075;BME280;4080;42.676;23.372;2023-01-28T03:44:26;94515.13;;;1.19;100.00
8075;BME280;4080;42.676;23.372;2023-01-28T03:47:10;94513.53;;;1.18;100.00
8075;BME280;4080;42.676;23.372;2023-01-28T03:49:40;94361.94;;;0.17;100.00
8075;BME280;4080;42.676;23.372;2023-01-28T03:52:07;94517.94;;;1.17;100.00
8075;BME280;4080;42.676;23.372;2023-01-28T03:54:34;94522.69;;;1.20;100.00
8075;BME280;4080;42.676;23.372;2023-01-28T03:57:01;94517.72;;;1.19;100.00
8075;BME280;4080;42.676;23.372;2023-01-28T03:59:27;94514.78;;;1.15;100.00
8075;BME280;4080;42.676;23.372;2023-01-28T04:01:54;94518.94;;;1.16;100.00
8075;BME280;4080;42.676;23.372;2023-01-28T04:04:21;94512.41;;;1.14;100.00
8075;BME280;4080;42.676;23.372;2023-01-28T04:06:53;94527.53;;;1.17;100.00
8075;BME280;4080;42.676;23.372;2023-01-28T04:09:20;94525.16;;;1.15;100.00
8075;BME280;4080;42.676;23.372;2023-01-28T04:11:47;94524.03;;;1.11;100.00
8075;BME280;4080;42.676;23.372;2023-01-28T04:14:14;94529.13;;;1.18;100.00
8075;BME280;4080;42.676;23.372;2023-01-28T04:16:41;94491.97;;;0.87;100.00
8075;BME280;4080;42.676;23.372;2023-01-28T04:19:09;94522.44;;;1.10;100.00
8075;BME280;4080;42.676;23.372;2023-01-28T04:21:36;94534.75;;;1.15;100.00
8075;BME280;4080;42.676;23.372;2023-01-28T04:24:05;94487.03;;;0.68;100.00
8075;BME280;4080;42.676;23.372;2023-01-28T04:26:32;94534.53;;;1.16;100.00
8075;BME280;4080;42.676;23.372;2023-01-28T04:28:58;94536.34;;;1.16;100.00
8075;BME280;4080;42.676;23.372;2023-01-28T04:31:25;94537.34;;;1.15;100.00
8075;BME280;4080;42.676;23.372;2023-01-28T04:33:52;94536.78;;;1.13;100.00
8075;BME280;4080;42.676;23.372;2023-01-28T04:36:18;94498.84;;;0.82;100.00
8075;BME280;4080;42.676;23.372;2023-01-28T04:38:45;94545.16;;;1.15;100.00
8075;BME280;4080;42.676;23.372;2023-01-28T04:41:13;94545.16;;;1.15;100.00
8075;BME280;4080;42.676;23.372;2023-01-28T04:43:40;94550.34;;;1.15;100.00
8075;BME280;4080;42.676;23.372;2023-01-28T04:46:07;94562.53;;;1.14;100.00
8075;BME280;4080;42.676;23.372;2023-01-28T04:48:34;94561.97;;;1.12;100.00
8075;BME280;4080;42.676;23.372;2023-01-28T04:51:01;94565.72;;;1.16;100.00
8075;BME280;4080;42.676;23.372;2023-01-28T04:53:28;94559.03;;;1.09;100.00
8075;BME280;4080;42.676;23.372;2023-01-28T04:55:55;94571.91;;;1.15;100.00
8075;BME280;4080;42.676;23.372;2023-01-28T04:58:23;94571.00;;;1.10;100.00
8075;BME280;4080;42.676;23.372;2023-01-28T05:00:53;94573.94;;;1.13;100.00
8075;BME280;4080;42.676;23.372;2023-01-28T05:03:21;94580.94;;;1.13;100.00
8075;BME280;4080;42.676;23.372;2023-01-28T05:05:48;94571.78;;;1.10;100.00
8075;BME280;4080;42.676;23.372;2023-01-28T05:08:14;94520.00;;;0.67;100.00
8075;BME280;4080;42.676;23.372;2023-01-28T05:10:42;94571.66;;;1.05;100.00
8075;BME280;4080;42.676;23.372;2023-01-28T05:13:09;94559.13;;;0.84;100.00
8075;BME280;4080;42.676;23.372;2023-01-28T05:15:37;94554.38;;;0.81;100.00
8075;BME280;4080;42.676;23.372;2023-01-28T05:18:04;94573.03;;;0.89;100.00
8075;BME280;4080;42.676;23.372;2023-01-28T05:20:31;94597.84;;;1.04;100.00
8075;BME280;4080;42.676;23.372;2023-01-28T05:22:58;94590.50;;;1.01;100.00
8075;BME280;4080;42.676;23.372;2023-01-28T05:25:24;94592.09;;;1.02;100.00
8075;BME280;4080;42.676;23.372;2023-01-28T05:27:51;94597.28;;;1.02;100.00
8075;BME280;4080;42.676;23.372;2023-01-28T05:30:19;94559.78;;;0.79;100.00
8075;BME280;4080;42.676;23.372;2023-01-28T05:32:48;94591.06;;;1.03;100.00
8075;BME280;4080;42.676;23.372;2023-01-28T05:35:15;94555.81;;;0.77;100.00
8075;BME280;4080;42.676;23.372;2023-01-28T05:37:42;94598.41;;;1.06;100.00
8075;BME280;4080;42.676;23.372;2023-01-28T05:40:09;94601.38;;;1.09;100.00
8075;BME280;4080;42.676;23.372;2023-01-28T05:42:36;94604.97;;;1.08;100.00
8075;BME280;4080;42.676;23.372;2023-01-28T05:45:03;94600.56;;;1.09;100.00
8075;BME280;4080;42.676;23.372;2023-01-28T05:47:30;94605.78;;;1.09;100.00
8075;BME280;4080;42.676;23.372;2023-01-28T05:50:00;94611.53;;;1.11;100.00
8075;BME280;4080;42.676;23.372;2023-01-28T05:52:26;94603.19;;;1.09;100.00
8075;BME280;4080;42.676;23.372;2023-01-28T05:54:53;94607.56;;;1.08;100.00
8075;BME280;4080;42.676;23.372;2023-01-28T05:57:20;94609.97;;;1.10;100.00
8075;BME280;4080;42.676;23.372;2023-01-28T05:59:46;94622.50;;;1.13;100.00
8075;BME280;4080;42.676;23.372;2023-01-28T06:02:13;94618.66;;;1.15;100.00
8075;BME280;4080;42.676;23.372;2023-01-28T06:04:40;94633.47;;;1.15;100.00
8075;BME280;4080;42.676;23.372;2023-01-28T06:07:08;94637.66;;;1.16;100.00
8075;BME280;4080;42.676;23.372;2023-01-28T06:09:37;94639.47;;;1.15;100.00
8075;BME280;4080;42.676;23.372;2023-01-28T06:12:04;94639.81;;;1.19;100.00
8075;BME280;4080;42.676;23.372;2023-01-28T06:14:31;94651.78;;;1.20;100.00
8075;BME280;4080;42.676;23.372;2023-01-28T06:16:58;94643.19;;;1.19;100.00
8075;BME280;4080;42.676;23.372;2023-01-28T06:19:24;94651.38;;;1.23;100.00
8075;BME280;4080;42.676;23.372;2023-01-28T06:21:51;94640.69;;;1.13;100.00
8075;BME280;4080;42.676;23.372;2023-01-28T06:24:19;94615.97;;;0.92;100.00
8075;BME280;4080;42.676;23.372;2023-01-28T06:29:31;94663.34;;;1.24;100.00
8075;BME280;4080;42.676;23.372;2023-01-28T06:31:58;94654.59;;;1.18;100.00
8075;BME280;4080;42.676;23.372;2023-01-28T06:34:25;94673.53;;;1.26;100.00
8075;BME280;4080;42.676;23.372;2023-01-28T06:36:51;94671.88;;;1.31;100.00
8075;BME280;4080;42.676;23.372;2023-01-28T06:39:20;94677.19;;;1.36;100.00
8075;BME280;4080;42.676;23.372;2023-01-28T06:41:47;94675.75;;;1.40;100.00
8075;BME280;4080;42.676;23.372;2023-01-28T06:44:14;94675.16;;;1.38;100.00
8075;BME280;4080;42.676;23.372;2023-01-28T06:46:41;94681.59;;;1.36;100.00
8075;BME280;4080;42.676;23.372;2023-01-28T06:49:08;94686.00;;;1.35;100.00
8075;BME280;4080;42.676;23.372;2023-01-28T06:51:34;94689.19;;;1.37;100.00
8075;BME280;4080;42.676;23.372;2023-01-28T06:54:01;94693.34;;;1.38;100.00
8075;BME280;4080;42.676;23.372;2023-01-28T06:56:29;94688.16;;;1.38;100.00
8075;BME280;4080;42.676;23.372;2023-01-28T06:58:56;94694.38;;;1.37;100.00
8075;BME280;4080;42.676;23.372;2023-01-28T07:01:23;94698.56;;;1.38;100.00
8075;BME280;4080;42.676;23.372;2023-01-28T07:03:50;94686.88;;;1.29;100.00
8075;BME280;4080;42.676;23.372;2023-01-28T07:06:17;94703.88;;;1.43;100.00
8075;BME280;4080;42.676;23.372;2023-01-28T07:08:43;94674.16;;;1.21;100.00
8075;BME280;4080;42.676;23.372;2023-01-28T07:11:10;94707.84;;;1.46;100.00
8075;BME280;4080;42.676;23.372;2023-01-28T07:13:38;94719.41;;;1.50;100.00
8075;BME280;4080;42.676;23.372;2023-01-28T07:16:06;94720.84;;;1.46;100.00
8075;BME280;4080;42.676;23.372;2023-01-28T07:18:33;94730.22;;;1.47;100.00
8075;BME280;4080;42.676;23.372;2023-01-28T07:20:59;94724.69;;;1.43;100.00
8075;BME280;4080;42.676;23.372;2023-01-28T07:23:26;94728.66;;;1.46;100.00
8075;BME280;4080;42.676;23.372;2023-01-28T07:25:53;94733.19;;;1.50;100.00
8075;BME280;4080;42.676;23.372;2023-01-28T07:28:20;94688.09;;;1.27;100.00
8075;BME280;4080;42.676;23.372;2023-01-28T07:30:49;94734.84;;;1.63;100.00
8075;BME280;4080;42.676;23.372;2023-01-28T07:33:16;94745.59;;;1.67;100.00
8075;BME280;4080;42.676;23.372;2023-01-28T07:35:43;94739.63;;;1.66;100.00
8075;BME280;4080;42.676;23.372;2023-01-28T07:38:10;94742.00;;;1.68;100.00
8075;BME280;4080;42.676;23.372;2023-01-28T07:40:37;94746.31;;;1.74;100.00
8075;BME280;4080;42.676;23.372;2023-01-28T07:43:04;94747.34;;;1.73;100.00
8075;BME280;4080;42.676;23.372;2023-01-28T07:45:32;94744.72;;;1.73;100.00
8075;BME280;4080;42.676;23.372;2023-01-28T07:48:01;94756.06;;;1.78;100.00
8075;BME280;4080;42.676;23.372;2023-01-28T07:50:30;94742.00;;;1.68;100.00
8075;BME280;4080;42.676;23.372;2023-01-28T07:52:58;94754.25;;;1.79;100.00
8075;BME280;4080;42.676;23.372;2023-01-28T07:55:27;94756.78;;;1.85;100.00
8075;BME280;4080;42.676;23.372;2023-01-28T07:57:56;94756.56;;;1.87;100.00
8075;BME280;4080;42.676;23.372;2023-01-28T08:00:24;94764.50;;;1.92;100.00
8075;BME280;4080;42.676;23.372;2023-01-28T08:02:54;94756.78;;;1.85;100.00
8075;BME280;4080;42.676;23.372;2023-01-28T08:05:23;94737.50;;;1.75;100.00
8075;BME280;4080;42.676;23.372;2023-01-28T08:07:51;94771.44;;;1.98;100.00
8075;BME280;4080;42.676;23.372;2023-01-28T08:10:18;94776.97;;;2.02;100.00
8075;BME280;4080;42.676;23.372;2023-01-28T08:12:52;94747.88;;;1.93;100.00
8075;BME280;4080;42.676;23.372;2023-01-28T08:15:18;94778.63;;;2.14;100.00
8075;BME280;4080;42.676;23.372;2023-01-28T08:17:45;94778.47;;;2.09;100.00
8075;BME280;4080;42.676;23.372;2023-01-28T08:20:12;94780.94;;;2.04;100.00
8075;BME280;4080;42.676;23.372;2023-01-28T08:22:40;94785.56;;;2.02;100.00
8075;BME280;4080;42.676;23.372;2023-01-28T08:25:07;94778.78;;;2.01;100.00
8075;BME280;4080;42.676;23.372;2023-01-28T08:27:34;94792.81;;;2.00;100.00
8075;BME280;4080;42.676;23.372;2023-01-28T08:30:01;94783.63;;;1.98;100.00
8075;BME280;4080;42.676;23.372;2023-01-28T08:32:28;94748.25;;;1.78;100.00
8075;BME280;4080;42.676;23.372;2023-01-28T08:34:55;94776.97;;;2.02;100.00
8075;BME280;4080;42.676;23.372;2023-01-28T08:37:22;94786.59;;;2.01;100.00
8075;BME280;4080;42.676;23.372;2023-01-28T08:39:50;94783.91;;;2.08;100.00
8075;BME280;4080;42.676;23.372;2023-01-28T08:42:17;94786.22;;;2.16;100.00
8075;BME280;4080;42.676;23.372;2023-01-28T08:44:44;94784.75;;;2.20;100.00
8075;BME280;4080;42.676;23.372;2023-01-28T08:47:12;94784.88;;;2.25;100.00
8075;BME280;4080;42.676;23.372;2023-01-28T08:49:39;94781.97;;;2.33;100.00
8075;BME280;4080;42.676;23.372;2023-01-28T08:52:05;94792.28;;;2.40;100.00
8075;BME280;4080;42.676;23.372;2023-01-28T08:54:32;94784.53;;;2.52;100.00
8075;BME280;4080;42.676;23.372;2023-01-28T08:57:02;94789.75;;;2.63;100.00
8075;BME280;4080;42.676;23.372;2023-01-28T08:59:28;94789.88;;;2.68;100.00
8075;BME280;4080;42.676;23.372;2023-01-28T09:01:55;94795.41;;;2.72;100.00
8075;BME280;4080;42.676;23.372;2023-01-28T09:04:22;94795.75;;;2.75;100.00
8075;BME280;4080;42.676;23.372;2023-01-28T09:06:48;94802.09;;;2.68;100.00
8075;BME280;4080;42.676;23.372;2023-01-28T09:09:15;94796.66;;;2.69;100.00
8075;BME280;4080;42.676;23.372;2023-01-28T09:11:42;94756.97;;;2.44;100.00
8075;BME280;4080;42.676;23.372;2023-01-28T09:14:10;94799.84;;;2.71;100.00
8075;BME280;4080;42.676;23.372;2023-01-28T09:16:36;94806.19;;;2.75;100.00
8075;BME280;4080;42.676;23.372;2023-01-28T09:19:03;94802.78;;;2.75;100.00
8075;BME280;4080;42.676;23.372;2023-01-28T09:21:30;94803.03;;;2.85;100.00
8075;BME280;4080;42.676;23.372;2023-01-28T09:23:56;94802.47;;;2.95;100.00
8075;BME280;4080;42.676;23.372;2023-01-28T09:26:23;94800.66;;;2.95;100.00
8075;BME280;4080;42.676;23.372;2023-01-28T09:28:50;94804.88;;;2.96;100.00
8075;BME280;4080;42.676;23.372;2023-01-28T09:31:18;94799.09;;;2.94;100.00
8075;BME280;4080;42.676;23.372;2023-01-28T09:33:46;94805.31;;;2.93;100.00
8075;BME280;4080;42.676;23.372;2023-01-28T09:36:19;94797.94;;;2.90;100.00
8075;BME280;4080;42.676;23.372;2023-01-28T09:38:45;94763.13;;;2.61;100.00
8075;BME280;4080;42.676;23.372;2023-01-28T09:41:23;94799.97;;;2.76;100.00
8075;BME280;4080;42.676;23.372;2023-01-28T09:44:02;94790.75;;;2.62;100.00
8075;BME280;4080;42.676;23.372;2023-01-28T09:46:34;94803.34;;;2.65;100.00
8075;BME280;4080;42.676;23.372;2023-01-28T09:49:05;94794.38;;;2.61;100.00
8075;BME280;4080;42.676;23.372;2023-01-28T09:51:40;94771.72;;;2.50;100.00
8075;BME280;4080;42.676;23.372;2023-01-28T09:54:16;94780.78;;;2.47;100.00
8075;BME280;4080;42.676;23.372;2023-01-28T09:56:46;94796.66;;;2.69;100.00
8075;BME280;4080;42.676;23.372;2023-01-28T09:59:17;94791.72;;;2.79;100.00
8075;BME280;4080;42.676;23.372;2023-01-28T10:01:52;94808.38;;;2.90;100.00
8075;BME280;4080;42.676;23.372;2023-01-28T10:04:28;94805.19;;;3.00;100.00
8075;BME280;4080;42.676;23.372;2023-01-28T10:07:09;94794.47;;;3.08;100.00
8075;BME280;4080;42.676;23.372;2023-01-28T10:09:47;94785.19;;;3.12;100.00
8075;BME280;4080;42.676;23.372;2023-01-28T10:12:33;94790.28;;;3.19;100.00
8075;BME280;4080;42.676;23.372;2023-01-28T10:15:22;94789.03;;;3.21;100.00
8075;BME280;4080;42.676;23.372;2023-01-28T10:17:56;94749.03;;;2.80;100.00
8075;BME280;4080;42.676;23.372;2023-01-28T10:20:27;94794.78;;;3.00;100.00
8075;BME280;4080;42.676;23.372;2023-01-28T10:22:59;94792.28;;;2.93;100.00
8075;BME280;4080;42.676;23.372;2023-01-28T10:25:32;94788.88;;;2.93;100.00
8075;BME280;4080;42.676;23.372;2023-01-28T10:28:01;94790.25;;;2.95;100.00
8075;BME280;4080;42.676;23.372;2023-01-28T10:30:30;94775.53;;;2.89;100.00
8075;BME280;4080;42.676;23.372;2023-01-28T10:33:03;94790.63;;;3.10;100.00
8075;BME280;4080;42.676;23.372;2023-01-28T10:35:32;94800.34;;;3.15;100.00
8075;BME280;4080;42.676;23.372;2023-01-28T10:38:05;94791.75;;;3.15;100.00
8075;BME280;4080;42.676;23.372;2023-01-28T10:40:33;94790.84;;;3.09;100.00
8075;BME280;4080;42.676;23.372;2023-01-28T10:43:00;94795.13;;;3.27;100.00
8075;BME280;4080;42.676;23.372;2023-01-28T10:45:29;94795.25;;;3.32;100.00
8075;BME280;4080;42.676;23.372;2023-01-28T10:48:02;94790.38;;;3.35;100.00
8075;BME280;4080;42.676;23.372;2023-01-28T10:50:30;94787.34;;;3.38;100.00
8075;BME280;4080;42.676;23.372;2023-01-28T10:52:58;94775.97;;;3.33;100.00
8075;BME280;4080;42.676;23.372;2023-01-28T10:55:27;94787.91;;;3.40;100.00
8075;BME280;4080;42.676;23.372;2023-01-28T10:57:55;94789.94;;;3.38;100.00
8075;BME280;4080;42.676;23.372;2023-01-28T11:00:24;94766.91;;;3.24;100.00
8075;BME280;4080;42.676;23.372;2023-01-28T11:02:52;94789.56;;;3.35;100.00
8075;BME280;4080;42.676;23.372;2023-01-28T11:05:23;94778.59;;;3.33;100.00
8075;BME280;4080;42.676;23.372;2023-01-28T11:08:02;94786.16;;;3.34;100.00
8075;BME280;4080;42.676;23.372;2023-01-28T11:10:32;94790.97;;;3.37;100.00
8075;BME280;4080;42.676;23.372;2023-01-28T11:13:01;94789.47;;;3.41;100.00
8075;BME280;4080;42.676;23.372;2023-01-28T11:15:29;94788.56;;;3.48;100.00
8075;BME280;4080;42.676;23.372;2023-01-28T11:17:58;94786.16;;;3.58;100.00
8075;BME280;4080;42.676;23.372;2023-01-28T11:20:31;94774.84;;;3.52;100.00
8075;BME280;4080;42.676;23.372;2023-01-28T11:23:01;94768.81;;;3.52;100.00
8075;BME280;4080;42.676;23.372;2023-01-28T11:25:30;94745.38;;;3.40;100.00
8075;BME280;4080;42.676;23.372;2023-01-28T11:28:00;94787.16;;;3.80;100.00
8075;BME280;4080;42.676;23.372;2023-01-28T11:30:29;94787.94;;;3.81;100.00
8075;BME280;4080;42.676;23.372;2023-01-28T11:33:12;94771.50;;;3.80;100.00
8075;BME280;4080;42.676;23.372;2023-01-28T11:35:41;94783.19;;;3.78;100.00
8075;BME280;4080;42.676;23.372;2023-01-28T11:38:19;94774.13;;;3.68;100.00
8075;BME280;4080;42.676;23.372;2023-01-28T11:40:49;94766.31;;;3.68;100.00
8075;BME280;4080;42.676;23.372;2023-01-28T11:43:16;94784.31;;;3.82;100.00
8075;BME280;4080;42.676;23.372;2023-01-28T11:45:47;94783.38;;;3.88;100.00
8075;BME280;4080;42.676;23.372;2023-01-28T11:48:23;94783.63;;;3.86;100.00
8075;BME280;4080;42.676;23.372;2023-01-28T11:51:00;94776.94;;;3.79;100.00
8075;BME280;4080;42.676;23.372;2023-01-28T11:53:40;94778.56;;;3.68;100.00
8075;BME280;4080;42.676;23.372;2023-01-28T11:56:31;94774.25;;;3.62;100.00
8075;BME280;4080;42.676;23.372;2023-01-28T11:59:14;94763.94;;;3.55;100.00
8075;BME280;4080;42.676;23.372;2023-01-28T12:01:54;94772.31;;;3.69;100.00
8075;BME280;4080;42.676;23.372;2023-01-28T12:04:37;94777.31;;;3.70;100.00
8075;BME280;4080;42.676;23.372;2023-01-28T12:07:18;94780.00;;;3.76;100.00
8075;BME280;4080;42.676;23.372;2023-01-28T12:09:54;94789.84;;;3.85;100.00
8075;BME280;4080;42.676;23.372;2023-01-28T12:15:30;94784.25;;;3.93;100.00
8075;BME280;4080;42.676;23.372;2023-01-28T12:18:15;94783.25;;;3.94;100.00
8075;BME280;4080;42.676;23.372;2023-01-28T12:20:49;94786.19;;;3.98;100.00
8075;BME280;4080;42.676;23.372;2023-01-28T12:23:34;94789.69;;;4.03;100.00
8075;BME280;4080;42.676;23.372;2023-01-28T12:26:09;94775.19;;;3.96;100.00
8075;BME280;4080;42.676;23.372;2023-01-28T12:28:56;94784.47;;;4.03;100.00
8075;BME280;4080;42.676;23.372;2023-01-28T12:37:16;94783.88;;;4.13;100.00
8075;BME280;4080;42.676;23.372;2023-01-28T12:40:00;94793.94;;;4.21;100.00
8075;BME280;4080;42.676;23.372;2023-01-28T12:42:32;94790.91;;;4.13;100.00
8075;BME280;4080;42.676;23.372;2023-01-28T12:45:09;94795.03;;;4.09;100.00
8075;BME280;4080;42.676;23.372;2023-01-28T12:47:38;94805.91;;;4.05;100.00
8075;BME280;4080;42.676;23.372;2023-01-28T12:50:11;94799.03;;;3.99;100.00
8075;BME280;4080;42.676;23.372;2023-01-28T12:52:44;94751.47;;;3.69;100.00
8075;BME280;4080;42.676;23.372;2023-01-28T12:55:16;94811.16;;;4.05;100.00
8075;BME280;4080;42.676;23.372;2023-01-28T12:57:46;94811.28;;;3.99;100.00
8075;BME280;4080;42.676;23.372;2023-01-28T13:00:21;94763.56;;;3.75;100.00
8075;BME280;4080;42.676;23.372;2023-01-28T13:02:55;94783.19;;;3.78;100.00
8075;BME280;4080;42.676;23.372;2023-01-28T13:05:26;94811.00;;;4.12;100.00
8075;BME280;4080;42.676;23.372;2023-01-28T13:08:01;94818.59;;;4.14;100.00
8075;BME280;4080;42.676;23.372;2023-01-28T13:10:36;94812.44;;;4.20;100.00
8075;BME280;4080;42.676;23.372;2023-01-28T13:13:04;94824.25;;;4.22;100.00
8075;BME280;4080;42.676;23.372;2023-01-28T13:15:35;94824.16;;;4.17;100.00
8075;BME280;4080;42.676;23.372;2023-01-28T13:18:05;94825.97;;;4.17;100.00
8075;BME280;4080;42.676;23.372;2023-01-28T13:20:36;94823.81;;;4.14;100.00
8075;BME280;4080;42.676;23.372;2023-01-28T13:23:18;94827.94;;;4.10;100.00
8075;BME280;4080;42.676;23.372;2023-01-28T13:25:50;94817.72;;;3.96;100.00
8075;BME280;4080;42.676;23.372;2023-01-28T13:28:26;94806.44;;;3.79;100.00
8075;BME280;4080;42.676;23.372;2023-01-28T13:31:00;94820.56;;;3.95;100.00
8075;BME280;4080;42.676;23.372;2023-01-28T13:33:30;94825.69;;;3.90;100.00
8075;BME280;4080;42.676;23.372;2023-01-28T13:36:02;94788.66;;;3.53;100.00
8075;BME280;4080;42.676;23.372;2023-01-28T13:38:30;94821.84;;;3.81;100.00